Details From TNCM - Wallblake
To TXKF - Bermuda Intl
Flight Number -
Tags Other Decoded
Created
Modified
Stats Distance 810 nm / 1,499 km
Max Altitude 0 ft / 0 m
Waypoints 2
Social Downloads 2
Likes 0
Share VATSIM

Download

Looking for another format? Having issues loading an existing format? Contact us
Advertisement - Login to hide

Notes

Decoded

Route

TRNKY ROOFE

ID Type Via Altitude Latitude Longitude Leg Dist Tot Dist Heading (true) Name
O TRNKY FIX - 0 ft / 0 m 18.42028˚ -63.18969˚ - 0 nm - -
O ROOFE FIX - 0 ft / 0 m 31.67472˚ -65.91772˚ 809 nm 809 nm 350° / 349° -

Altitude Profile

Advertisement - Login to hide

Weather


0- 5 10 15 20 25 30 35+ Temperature / ° C

Clouds and Precipitation
Forecast for 2018-05-25 18:00 UTC. Updated 4 hours ago

Ground ~20,000 ft ~40,000 ft Winds

TNCM

Details ICAO TNCM (SXM)
Name St Maarten - Princess Juliana Intl
Region Caribbean Netherlands, Aruba, Curaçao, Sint Maarten
Timezone Unknown (UTC+0.0)
Stats Elevation 12 ft / 4 m (AMSL)
Location 18.040889° -63.108974°
Runways 1
Magnetic Variation 14.337° W

METAR

TNCM 252100Z 09010KT 060V130 9999 SCT020 28/21 Q1015 A2999 NOSIG

Decode

TAF

TAF TNCM 251741Z 2518/2618 10012KT P6SM VCSH SCT018

Decode

Departure Runways

ID Width Length Bearing (true) Bearing (mag) Surface Threshold Offset Overrun Length
10 148 ft / 45 m 7,464 ft / 2,275 m 81.43° 95.77° Asphalt 0 ft / 0 m 151 ft / 46 m
28 148 ft / 45 m 7,464 ft / 2,275 m 261.44° 275.78° Asphalt 397 ft / 121 m 0 ft / 0 m

TXKF

Details ICAO TXKF (BDA)
Name Bermuda Intl
Region Bermuda
Timezone Unknown (UTC+0.0)
Stats Elevation 12 ft / 4 m (AMSL)
Location 32.364038° -64.678684°
Runways 1
Magnetic Variation 14.766° W

METAR

TXKF 252055Z 06005KT 040V120 9999 FEW030 FEW300 25/18 Q1019

Decode

TAF

TAF TXKF 251732Z 2518/2618 07007KT 9999 FEW030 SCT300 BECMG 2600/2603 VRB05KT

Decode

Destination Runways

ID Width Length Bearing (true) Bearing (mag) Surface Threshold Offset Overrun Length
12 150 ft / 46 m 9,701 ft / 2,957 m 101.50° 116.27° Asphalt 0 ft / 0 m 553 ft / 169 m
30 150 ft / 46 m 9,701 ft / 2,957 m 281.52° 296.29° Asphalt 0 ft / 0 m 207 ft / 63 m

Approach Navaids

Runway Type Ident Frequency Range Bearing (true) Bearing (mag) Slope Elevation
30 Localiser IBDA 109.90 MHz 18 nm / 33 km 281.50° 296.27° - 11 ft / 3 m (AMSL)
30 Glidescope IBDA 109.90 MHz 10 nm / 19 km 281.51° 296.28° 3.00° 11 ft / 3 m (AMSL)

Popular Alternatives